Time;durP1;ratioP1;P1;durP2;ratioP2;P2;SDS_P1;SDS_P2;PMS_P1;PMS_P2;Temp;Humidity;BMP_temperature;BMP_pressure;BME280_temperature;BME280_humidity;BME280_pressure;Samples;Min_cycle;Max_cycle;Signal;HPM_P1;HPM_P2
2023/01/21 00:01:17;;;;;;;18.43;8.03;;;0.20;99.90;;;;;;5072151;28;20190;-58
2023/01/21 00:03:43;;;;;;;19.67;8.73;;;0.30;99.90;;;;;;5070267;28;20164;-58
2023/01/21 00:06:10;;;;;;;24.03;9.07;;;0.20;99.90;;;;;;5070307;28;20169;-57
2023/01/21 00:08:35;;;;;;;18.17;8.83;;;0.20;99.90;;;;;;5052661;28;20212;-58
2023/01/21 00:11:09;;;;;;;24.67;9.17;;;0.20;99.90;;;;;;5069525;28;20218;-58
2023/01/21 00:13:35;;;;;;;18.87;9.30;;;0.20;99.90;;;;;;5072020;28;20176;-57
2023/01/21 00:16:03;;;;;;;20.43;9.57;;;0.30;99.90;;;;;;5071118;28;20221;-58
2023/01/21 00:18:28;;;;;;;24.03;10.33;;;0.30;99.90;;;;;;5071743;28;20172;-59
2023/01/21 00:20:54;;;;;;;22.30;10.77;;;0.30;99.90;;;;;;5071610;28;20183;-58
2023/01/21 00:23:19;;;;;;;27.27;10.10;;;0.40;99.90;;;;;;5070905;28;20242;-58
2023/01/21 00:25:45;;;;;;;22.40;9.47;;;0.50;99.90;;;;;;5071852;28;20614;-58
2023/01/21 00:28:11;;;;;;;24.53;10.47;;;0.60;99.90;;;;;;5071737;28;20216;-58
2023/01/21 00:30:38;;;;;;;22.13;10.37;;;0.00;99.90;;;;;;5051787;28;20287;-58
2023/01/21 00:33:04;;;;;;;25.93;11.33;;;0.50;99.90;;;;;;5051436;28;20169;-58
2023/01/21 00:35:29;;;;;;;23.50;11.33;;;0.60;99.90;;;;;;5051597;28;20551;-57
2023/01/21 00:37:55;;;;;;;27.50;12.20;;;1.10;99.90;;;;;;5051661;28;20172;-57
2023/01/21 00:40:21;;;;;;;31.13;11.53;;;0.70;99.90;;;;;;5051435;28;20173;-57
2023/01/21 00:42:47;;;;;;;21.27;10.47;;;0.70;99.90;;;;;;5051503;28;20331;-57
2023/01/21 00:45:13;;;;;;;18.23;8.47;;;0.70;99.90;;;;;;5051427;28;20162;-58
2023/01/21 00:47:38;;;;;;;22.83;9.60;;;0.60;99.90;;;;;;5051330;28;20642;-57
2023/01/21 00:50:05;;;;;;;21.53;9.03;;;0.00;99.90;;;;;;5051205;28;20628;-57
2023/01/21 00:52:30;;;;;;;24.43;9.80;;;0.40;99.90;;;;;;5051417;28;20184;-57
2023/01/21 00:54:56;;;;;;;19.63;8.80;;;0.30;99.90;;;;;;5068061;28;20179;-57
2023/01/21 00:57:22;;;;;;;17.93;8.33;;;0.30;99.90;;;;;;5070095;28;20390;-57
2023/01/21 00:59:47;;;;;;;26.50;9.67;;;0.20;99.90;;;;;;5069294;28;20237;-57
2023/01/21 01:02:13;;;;;;;20.03;8.70;;;0.70;99.90;;;;;;5057495;28;20185;-57
2023/01/21 01:04:39;;;;;;;23.10;9.37;;;0.10;99.90;;;;;;5062372;28;20275;-56
2023/01/21 01:07:05;;;;;;;19.40;8.43;;;0.10;99.90;;;;;;5067166;28;20545;-56
2023/01/21 01:09:30;;;;;;;22.53;8.83;;;0.10;99.90;;;;;;5058808;28;20679;-56
2023/01/21 01:11:56;;;;;;;17.63;8.60;;;0.00;99.90;;;;;;5062288;28;20249;-56
2023/01/21 01:14:22;;;;;;;24.27;8.80;;;3.30;99.90;;;;;;5070286;28;20176;-57
2023/01/21 01:16:49;;;;;;;21.87;8.90;;;0.00;99.90;;;;;;5070507;28;20184;-57
2023/01/21 01:19:14;;;;;;;21.10;9.53;;;0.20;99.90;;;;;;5070152;28;20224;-57
2023/01/21 01:21:40;;;;;;;17.43;9.03;;;0.50;99.90;;;;;;5070165;28;20177;-57
2023/01/21 01:24:06;;;;;;;28.57;9.67;;;0.00;99.90;;;;;;5070174;28;20176;-57
2023/01/21 01:26:35;;;;;;;19.43;9.33;;;0.00;99.90;;;;;;5070002;28;20638;-57
2023/01/21 01:29:03;;;;;;;21.87;9.13;;;0.00;99.90;;;;;;5070676;28;20689;-57
2023/01/21 01:31:28;;;;;;;27.33;9.47;;;0.00;99.90;;;;;;5069268;28;20455;-57
2023/01/21 01:33:55;;;;;;;24.97;10.27;;;0.00;99.90;;;;;;5070515;28;20667;-54
2023/01/21 01:36:24;;;;;;;22.07;10.60;;;0.20;99.90;;;;;;5070817;28;20172;-58
2023/01/21 01:38:51;;;;;;;24.27;10.50;;;0.30;99.90;;;;;;5070588;28;20634;-58
2023/01/21 01:41:24;;;;;;;25.70;11.27;;;0.30;99.90;;;;;;5070545;28;20184;-58
2023/01/21 01:43:59;;;;;;;21.77;10.83;;;0.40;99.90;;;;;;5069759;28;20199;-58
2023/01/21 01:46:33;;;;;;;27.47;11.90;;;0.40;99.90;;;;;;5070550;28;20180;-58
2023/01/21 01:49:13;;;;;;;27.17;11.97;;;0.40;99.90;;;;;;5070246;28;20222;-58
2023/01/21 01:51:47;;;;;;;27.40;10.53;;;0.40;99.90;;;;;;5070327;28;20615;-58
2023/01/21 01:54:16;;;;;;;26.43;10.37;;;0.40;99.90;;;;;;5068751;28;20255;-59
2023/01/21 01:56:49;;;;;;;23.87;12.20;;;0.40;99.90;;;;;;5069431;28;20184;-61
2023/01/21 01:59:15;;;;;;;24.60;11.20;;;0.50;99.90;;;;;;5069360;28;20192;-58
2023/01/21 02:01:41;;;;;;;23.53;11.17;;;0.40;99.90;;;;;;5066221;28;20270;-58
2023/01/21 02:04:12;;;;;;;33.20;12.33;;;0.40;99.90;;;;;;5059325;28;20278;-58
2023/01/21 02:06:39;;;;;;;22.37;10.07;;;0.30;99.90;;;;;;5057997;28;20271;-58
2023/01/21 02:09:05;;;;;;;23.90;9.87;;;0.10;99.90;;;;;;5064782;28;20224;-58
2023/01/21 02:11:31;;;;;;;25.10;11.13;;;-0.10;99.90;;;;;;5059102;28;20173;-58
2023/01/21 02:13:58;;;;;;;31.97;13.13;;;-0.20;99.90;;;;;;5052262;28;20582;-56
2023/01/21 02:16:32;;;;;;;33.37;15.23;;;-0.10;99.90;;;;;;5069928;28;20184;-56
2023/01/21 02:19:35;;;;;;;34.83;14.90;;;-0.20;99.90;;;;;;5069710;28;20223;-56
2023/01/21 02:22:12;;;;;;;30.67;13.63;;;0.00;99.90;;;;;;5069444;28;20173;-56
2023/01/21 02:25:29;;;;;;;29.60;13.43;;;-0.10;99.90;;;;;;5051849;28;20188;-56
2023/01/21 02:28:33;;;;;;;39.23;13.63;;;-0.10;99.90;;;;;;5069371;28;20184;-56
2023/01/21 02:31:25;;;;;;;28.37;11.87;;;-0.20;99.90;;;;;;5060346;28;20179;-56
2023/01/21 02:34:04;;;;;;;24.27;11.57;;;0.10;99.90;;;;;;5053638;28;20179;-56
2023/01/21 02:36:36;;;;;;;34.40;12.43;;;-0.10;99.90;;;;;;5069524;28;20191;-56
2023/01/21 02:39:20;;;;;;;27.37;12.87;;;-0.10;99.90;;;;;;5051725;28;20625;-56
2023/01/21 02:42:02;;;;;;;28.87;12.57;;;0.00;99.90;;;;;;5069630;28;20634;-57
2023/01/21 02:44:34;;;;;;;41.50;16.47;;;-0.20;99.90;;;;;;5069888;28;20533;-57
2023/01/21 02:47:32;;;;;;;30.60;15.03;;;-0.20;99.90;;;;;;5069843;28;20176;-57
2023/01/21 02:50:00;;;;;;;38.53;13.73;;;-0.20;99.90;;;;;;5069640;28;20207;-56
2023/01/21 02:52:26;;;;;;;25.13;11.73;;;-0.20;99.90;;;;;;5051872;28;20268;-57
2023/01/21 02:54:59;;;;;;;23.67;11.33;;;-0.20;99.90;;;;;;5070777;28;20305;-57
2023/01/21 02:57:37;;;;;;;28.77;12.00;;;-0.10;99.90;;;;;;5071933;28;20171;-57
2023/01/21 03:00:14;;;;;;;28.27;11.30;;;-0.40;99.90;;;;;;5072667;28;20183;-57
2023/01/21 03:02:48;;;;;;;27.67;11.67;;;-0.20;99.90;;;;;;5067920;28;20196;-57
2023/01/21 03:05:24;;;;;;;25.10;10.83;;;-0.30;99.90;;;;;;5073329;28;20169;-57
2023/01/21 03:08:14;;;;;;;25.57;11.03;;;-0.30;99.90;;;;;;5073324;28;20256;-57
2023/01/21 03:10:47;;;;;;;25.33;10.73;;;-0.30;99.90;;;;;;5073231;28;20191;-57
2023/01/21 03:16:55;;;;;;;31.90;11.20;;;-0.30;99.90;;;;;;5072764;28;20176;-56
2023/01/21 03:19:04;;;;;;;25.83;11.47;;;-0.10;99.90;;;;;;5026321;28;20217;-57
2023/01/21 03:21:31;;;;;;;34.57;12.57;;;-0.40;99.90;;;;;;5072184;28;20186;-57
2023/01/21 03:23:58;;;;;;;31.03;12.77;;;-0.40;99.90;;;;;;5072061;28;20199;-57
2023/01/21 03:26:34;;;;;;;27.43;11.77;;;-0.40;99.90;;;;;;5072309;28;20239;-57
2023/01/21 03:29:04;;;;;;;29.83;11.90;;;-0.40;99.90;;;;;;5071814;28;20211;-57
2023/01/21 03:31:33;;;;;;;24.43;11.70;;;-0.40;99.90;;;;;;5070531;28;20187;-57
2023/01/21 03:34:03;;;;;;;29.80;13.67;;;-0.50;99.90;;;;;;5072705;28;20235;-57
2023/01/21 03:36:54;;;;;;;25.60;12.10;;;-0.70;99.90;;;;;;5072640;28;20194;-57
2023/01/21 03:39:52;;;;;;;29.07;12.43;;;-0.60;99.90;;;;;;5072128;28;20222;-56
2023/01/21 03:42:18;;;;;;;29.10;13.07;;;-0.60;99.90;;;;;;5072668;28;20241;-57
2023/01/21 03:44:45;;;;;;;28.00;13.07;;;-0.60;99.90;;;;;;5072419;28;20237;-57
2023/01/21 03:47:27;;;;;;;31.97;12.90;;;-0.90;99.90;;;;;;5072139;28;20225;-57
2023/01/21 03:49:59;;;;;;;27.00;11.83;;;-0.70;99.90;;;;;;5072306;28;20231;-57
2023/01/21 03:52:26;;;;;;;30.30;12.90;;;-0.70;99.90;;;;;;5072279;28;20239;-57
2023/01/21 03:54:52;;;;;;;30.37;13.00;;;-0.60;99.90;;;;;;5071313;28;20267;-57
2023/01/21 03:57:18;;;;;;;24.23;12.43;;;;;;;;;;5066782;28;20175;-57
2023/01/21 03:59:44;;;;;;;27.07;12.63;;;0.40;99.90;;;;;;5071800;28;20175;-57
2023/01/21 04:02:10;;;;;;;28.63;13.50;;;;;;;;;;5065400;28;20181;-57
2023/01/21 04:04:36;;;;;;;27.73;12.13;;;-0.80;99.90;;;;;;5062550;28;20175;-57
2023/01/21 04:07:02;;;;;;;30.47;12.83;;;-0.80;99.90;;;;;;5058610;28;20608;-58
2023/01/21 04:09:27;;;;;;;29.83;12.87;;;-0.80;99.90;;;;;;5066266;28;20207;-58
2023/01/21 04:11:53;;;;;;;29.63;12.87;;;-0.60;99.90;;;;;;5071735;28;20652;-58
2023/01/21 04:14:19;;;;;;;27.47;13.13;;;-0.80;99.90;;;;;;5071116;28;20184;-58
2023/01/21 04:16:44;;;;;;;31.53;14.40;;;-0.40;99.90;;;;;;5070671;28;20187;-58
2023/01/21 04:19:10;;;;;;;35.70;14.73;;;-2.50;99.90;;;;;;5071539;28;20303;-58
2023/01/21 04:21:36;;;;;;;33.20;16.10;;;-0.30;99.90;;;;;;5071569;28;20235;-58
2023/01/21 04:24:01;;;;;;;31.87;14.50;;;-0.20;99.90;;;;;;5071459;28;20183;-58
2023/01/21 04:26:27;;;;;;;29.03;14.23;;;-0.20;99.90;;;;;;5071240;28;20709;-58
2023/01/21 04:28:52;;;;;;;33.20;14.63;;;-0.30;99.90;;;;;;5053509;28;20214;-58
2023/01/21 04:31:18;;;;;;;25.90;13.57;;;-0.40;99.90;;;;;;5071309;28;20176;-58
2023/01/21 04:33:43;;;;;;;32.33;13.63;;;-0.40;99.90;;;;;;5071381;28;20638;-57
2023/01/21 04:36:09;;;;;;;28.70;14.03;;;-0.50;99.90;;;;;;5071384;28;20179;-57
2023/01/21 04:38:35;;;;;;;30.27;12.57;;;-0.60;99.90;;;;;;5071614;28;20653;-57
2023/01/21 04:41:01;;;;;;;29.30;13.50;;;;;;;;;;5071364;28;20174;-58
2023/01/21 04:43:26;;;;;;;32.23;12.87;;;-0.80;99.90;;;;;;5053723;28;20167;-57
2023/01/21 04:45:52;;;;;;;29.33;13.27;;;-0.80;99.90;;;;;;5071138;28;20225;-57
2023/01/21 04:48:17;;;;;;;29.27;13.20;;;-0.80;99.90;;;;;;5071441;28;20681;-57
2023/01/21 04:50:45;;;;;;;32.00;13.67;;;-1.20;99.90;;;;;;5070570;28;20228;-57
2023/01/21 04:53:10;;;;;;;32.20;13.03;;;-0.70;99.90;;;;;;5071264;28;20611;-58
2023/01/21 04:55:36;;;;;;;31.90;13.97;;;-0.80;99.90;;;;;;5070370;28;20184;-58
2023/01/21 04:58:01;;;;;;;33.50;15.20;;;-0.40;99.90;;;;;;5070878;28;20179;-57
2023/01/21 05:00:27;;;;;;;31.43;14.37;;;-0.20;99.90;;;;;;5069276;28;20209;-58
2023/01/21 05:02:53;;;;;;;38.80;15.67;;;-0.70;99.90;;;;;;5069805;28;20179;-57
2023/01/21 05:05:18;;;;;;;33.73;14.90;;;-0.60;99.90;;;;;;5055707;28;20211;-57
2023/01/21 05:07:44;;;;;;;31.20;15.00;;;-0.60;99.90;;;;;;5049146;28;20176;-56
2023/01/21 05:10:15;;;;;;;34.60;14.53;;;-0.70;99.90;;;;;;5054787;28;20220;-56
2023/01/21 05:12:40;;;;;;;30.20;14.77;;;-0.30;99.90;;;;;;5050971;28;20175;-56
2023/01/21 05:15:07;;;;;;;31.13;14.63;;;-0.80;99.90;;;;;;5063891;28;20553;-56
2023/01/21 05:17:32;;;;;;;29.90;13.83;;;-0.80;99.90;;;;;;5064145;28;20188;-56
2023/01/21 05:19:58;;;;;;;31.83;14.60;;;-1.00;99.90;;;;;;5061497;28;20756;-57
2023/01/21 05:22:25;;;;;;;33.30;13.80;;;-1.10;99.90;;;;;;5070489;28;20260;-57
2023/01/21 05:24:50;;;;;;;32.10;15.13;;;-1.10;99.90;;;;;;5070499;28;20552;-57
2023/01/21 05:27:16;;;;;;;37.40;15.17;;;-1.00;99.90;;;;;;5070819;28;20280;-58
2023/01/21 05:29:42;;;;;;;34.17;15.17;;;-0.70;99.90;;;;;;5069946;28;20218;-57
2023/01/21 05:32:08;;;;;;;37.90;15.13;;;-1.10;99.90;;;;;;5070358;28;20200;-57
2023/01/21 05:34:34;;;;;;;36.37;14.97;;;-0.80;99.90;;;;;;5070676;28;20174;-57
2023/01/21 05:36:59;;;;;;;44.13;15.63;;;-1.00;99.90;;;;;;5070480;28;20217;-56
2023/01/21 05:39:25;;;;;;;31.17;14.30;;;-0.70;99.90;;;;;;5070504;28;20573;-57
2023/01/21 05:41:51;;;;;;;38.03;14.83;;;-0.90;99.90;;;;;;5070541;28;20246;-57
2023/01/21 05:44:16;;;;;;;28.07;14.73;;;-0.80;99.90;;;;;;5070461;28;20550;-57
2023/01/21 05:46:42;;;;;;;34.73;15.13;;;-0.90;99.90;;;;;;5070508;28;20682;-57
2023/01/21 05:49:07;;;;;;;33.37;15.27;;;-0.70;99.90;;;;;;5070237;28;20211;-57
2023/01/21 05:51:33;;;;;;;33.90;15.63;;;-1.10;99.90;;;;;;5070279;28;20185;-58
2023/01/21 05:53:59;;;;;;;36.83;15.37;;;-0.70;99.90;;;;;;5070229;28;20268;-57
2023/01/21 05:56:24;;;;;;;36.47;14.73;;;-0.80;99.90;;;;;;5070228;28;20179;-58
2023/01/21 05:58:50;;;;;;;33.90;15.43;;;-0.70;99.90;;;;;;5070318;28;20189;-58
2023/01/21 06:01:15;;;;;;;32.03;14.60;;;-0.70;99.90;;;;;;5069903;28;20651;-57
2023/01/21 06:03:41;;;;;;;30.43;15.27;;;-0.60;99.90;;;;;;5070013;28;20165;-58
2023/01/21 06:06:07;;;;;;;31.60;15.63;;;-0.70;99.90;;;;;;5069795;28;20175;-58
2023/01/21 06:08:32;;;;;;;36.97;14.87;;;-0.80;99.90;;;;;;5069881;28;20714;-57
2023/01/21 06:10:58;;;;;;;29.80;15.47;;;-1.00;99.90;;;;;;5069746;28;20539;-57
2023/01/21 06:13:24;;;;;;;36.33;15.40;;;-0.90;99.90;;;;;;5070170;28;20183;-57
2023/01/21 06:15:52;;;;;;;35.67;15.23;;;-1.10;99.90;;;;;;5069421;28;20225;-57
2023/01/21 06:18:17;;;;;;;34.13;15.07;;;-0.90;99.90;;;;;;5062037;28;20619;-57
2023/01/21 06:20:43;;;;;;;30.17;14.43;;;-0.90;99.90;;;;;;5061123;28;20720;-57
2023/01/21 06:23:09;;;;;;;33.03;14.83;;;-0.90;99.90;;;;;;5061319;28;20187;-57
2023/01/21 06:25:34;;;;;;;30.33;14.80;;;-0.90;99.90;;;;;;5052692;28;20180;-58
2023/01/21 06:28:00;;;;;;;34.60;14.47;;;-1.00;99.90;;;;;;5050033;28;20204;-57
2023/01/21 06:30:26;;;;;;;31.47;14.73;;;;;;;;;;5066917;28;20292;-56
2023/01/21 06:32:52;;;;;;;31.27;15.03;;;-1.50;99.90;;;;;;5073520;28;20186;-56
2023/01/21 06:35:18;;;;;;;32.17;14.93;;;-1.20;99.90;;;;;;5073525;28;20180;-56
2023/01/21 06:37:45;;;;;;;31.73;14.50;;;-1.10;99.90;;;;;;5062400;28;20174;-57
2023/01/21 06:40:12;;;;;;;34.33;14.70;;;-1.20;99.90;;;;;;5073819;28;20172;-62
2023/01/21 06:42:38;;;;;;;29.43;14.63;;;;;;;;;;5073798;28;20186;-57
2023/01/21 06:45:04;;;;;;;33.97;15.23;;;-1.30;99.90;;;;;;5073622;28;20239;-56
2023/01/21 06:47:30;;;;;;;29.67;14.00;;;;;;;;;;5073653;28;20822;-56
2023/01/21 06:49:55;;;;;;;32.03;15.00;;;-1.70;99.90;;;;;;5073412;28;20262;-57
2023/01/21 06:52:22;;;;;;;30.37;13.90;;;-1.30;99.90;;;;;;5073461;28;20176;-57
2023/01/21 06:54:47;;;;;;;31.23;13.90;;;-1.50;99.90;;;;;;5073385;28;20260;-57
2023/01/21 06:57:13;;;;;;;33.23;14.47;;;-1.40;99.90;;;;;;5073336;28;20194;-57
2023/01/21 06:59:39;;;;;;;31.33;14.93;;;-1.10;99.90;;;;;;5073359;28;20176;-57
2023/01/21 07:02:06;;;;;;;31.17;14.70;;;-1.20;99.90;;;;;;5073308;28;20533;-57
2023/01/21 07:04:31;;;;;;;33.70;15.17;;;-0.90;99.90;;;;;;5073156;28;20177;-57
2023/01/21 07:06:57;;;;;;;33.90;14.37;;;-1.60;99.90;;;;;;5072997;28;20186;-57
2023/01/21 07:09:23;;;;;;;38.03;16.63;;;-1.10;99.90;;;;;;5072938;28;20697;-57
2023/01/21 07:11:48;;;;;;;35.33;15.00;;;-0.90;99.90;;;;;;5073290;28;20175;-57
2023/01/21 07:14:14;;;;;;;41.03;15.03;;;-0.50;99.90;;;;;;5072859;28;20250;-57
2023/01/21 07:16:40;;;;;;;42.53;16.27;;;-0.90;99.90;;;;;;5072897;28;20185;-57
2023/01/21 07:19:05;;;;;;;32.30;15.33;;;-1.00;99.90;;;;;;5072471;28;20232;-57
2023/01/21 07:21:31;;;;;;;33.93;14.87;;;-1.30;99.90;;;;;;5072447;28;20291;-57
2023/01/21 07:23:56;;;;;;;36.93;14.37;;;-1.30;99.90;;;;;;5072926;28;20286;-57
2023/01/21 07:26:22;;;;;;;42.10;14.90;;;-1.20;99.90;;;;;;5068663;28;20276;-57
2023/01/21 07:28:48;;;;;;;34.50;14.17;;;-1.20;99.90;;;;;;5069274;28;20270;-57
2023/01/21 07:31:14;;;;;;;38.20;15.50;;;-1.20;99.90;;;;;;5072673;28;20164;-57
2023/01/21 07:33:39;;;;;;;32.93;14.10;;;-1.20;99.90;;;;;;5063357;28;20189;-57
2023/01/21 07:36:06;;;;;;;27.87;14.90;;;-1.20;99.90;;;;;;5071993;28;20238;-57
2023/01/21 07:38:32;;;;;;;40.97;15.60;;;-1.40;99.90;;;;;;5072678;28;20208;-57
2023/01/21 07:40:57;;;;;;;36.60;15.27;;;-1.50;99.90;;;;;;5071582;28;20217;-57
2023/01/21 07:43:23;;;;;;;30.67;15.17;;;-1.20;99.90;;;;;;5072155;28;20731;-57
2023/01/21 07:45:49;;;;;;;42.07;16.30;;;-1.20;99.90;;;;;;5070934;28;20223;-57
2023/01/21 07:48:15;;;;;;;37.17;16.20;;;-1.00;99.90;;;;;;5072006;28;20268;-55
2023/01/21 07:50:41;;;;;;;36.07;16.83;;;-0.70;99.90;;;;;;5071933;28;20192;-55
2023/01/21 07:53:06;;;;;;;38.83;15.93;;;-0.70;99.90;;;;;;5071784;28;20164;-55
2023/01/21 07:55:32;;;;;;;39.83;16.53;;;-0.80;99.90;;;;;;5071417;28;20512;-55
2023/01/21 07:57:58;;;;;;;34.10;15.80;;;-0.70;99.90;;;;;;5071986;28;20184;-56
2023/01/21 08:00:26;;;;;;;33.67;15.80;;;-0.70;99.90;;;;;;5071579;28;20623;-55
2023/01/21 08:02:55;;;;;;;33.13;16.20;;;-0.10;99.90;;;;;;5072267;28;20180;-55
2023/01/21 08:05:22;;;;;;;39.33;17.00;;;-0.20;99.90;;;;;;5071530;28;20173;-55
2023/01/21 08:07:48;;;;;;;60.47;17.23;;;0.00;99.90;;;;;;5072309;28;20249;-55
2023/01/21 08:10:14;;;;;;;39.77;16.33;;;-0.10;99.90;;;;;;5071673;28;20255;-64
2023/01/21 08:12:41;;;;;;;51.07;18.47;;;0.20;99.90;;;;;;5071391;28;20184;-56
2023/01/21 08:15:07;;;;;;;50.50;18.77;;;0.20;99.90;;;;;;5071844;28;20174;-56
2023/01/21 08:17:33;;;;;;;63.57;17.83;;;;;;;;;;5070667;28;20173;-56
2023/01/21 08:19:59;;;;;;;52.27;16.83;;;0.20;99.90;;;;;;5071520;28;20218;-56
2023/01/21 08:22:25;;;;;;;50.77;17.57;;;0.20;99.90;;;;;;5070469;28;20175;-55
2023/01/21 08:24:50;;;;;;;41.33;16.53;;;0.30;99.90;;;;;;5070375;28;20260;-55
2023/01/21 08:27:16;;;;;;;52.33;16.60;;;0.50;99.90;;;;;;5068035;28;20183;-56
2023/01/21 08:29:42;;;;;;;43.67;17.73;;;0.50;99.90;;;;;;5069502;28;20753;-56
2023/01/21 08:32:07;;;;;;;47.87;15.60;;;0.60;99.90;;;;;;5070513;28;20179;-56
2023/01/21 08:34:33;;;;;;;44.13;16.50;;;0.60;99.90;;;;;;5068247;28;20176;-56
2023/01/21 08:36:59;;;;;;;43.77;16.63;;;0.60;99.90;;;;;;5071497;28;20643;-55
2023/01/21 08:39:24;;;;;;;64.47;16.87;;;0.60;99.90;;;;;;5071699;28;20230;-54
2023/01/21 08:41:50;;;;;;;50.43;16.17;;;0.20;99.90;;;;;;5071522;28;20697;-54
2023/01/21 08:44:16;;;;;;;60.67;17.13;;;0.60;99.90;;;;;;5071371;28;20655;-55
2023/01/21 08:46:41;;;;;;;60.90;15.90;;;1.10;99.90;;;;;;5070794;28;20257;-55
2023/01/21 08:49:07;;;;;;;41.57;15.50;;;0.40;99.90;;;;;;5071179;28;20208;-55
2023/01/21 08:51:33;;;;;;;68.37;16.77;;;0.30;99.90;;;;;;5071216;28;20180;-55
2023/01/21 08:53:58;;;;;;;56.10;16.93;;;0.40;99.90;;;;;;5071172;28;20187;-55
2023/01/21 08:56:24;;;;;;;52.57;17.20;;;0.50;99.90;;;;;;5070732;28;20646;-55
2023/01/21 08:58:54;;;;;;;55.43;16.83;;;0.30;99.90;;;;;;5071155;28;20180;-55
2023/01/21 09:01:20;;;;;;;51.80;16.23;;;0.60;99.90;;;;;;5071035;28;20176;-55
2023/01/21 09:03:45;;;;;;;76.07;16.97;;;0.10;99.90;;;;;;5070715;28;20264;-55
2023/01/21 09:06:11;;;;;;;61.40;18.07;;;0.20;99.90;;;;;;5071047;28;20167;-59
2023/01/21 09:08:36;;;;;;;70.83;16.43;;;-0.10;99.90;;;;;;5070844;28;20196;-55
2023/01/21 09:11:05;;;;;;;54.30;15.10;;;0.30;99.90;;;;;;5070849;28;20187;-55
2023/01/21 09:13:39;;;;;;;61.07;17.13;;;0.20;99.90;;;;;;5070890;28;20176;-56
2023/01/21 09:16:15;;;;;;;58.00;16.30;;;0.40;99.90;;;;;;5070400;28;20195;-56
2023/01/21 09:18:42;;;;;;;54.20;18.03;;;0.60;99.90;;;;;;5064465;28;20223;-57
2023/01/21 09:21:09;;;;;;;72.67;16.70;;;0.50;99.90;;;;;;5070785;28;20172;-56
2023/01/21 09:23:36;;;;;;;97.80;19.60;;;0.30;99.90;;;;;;5070307;28;20180;-56
2023/01/21 09:26:08;;;;;;;114.23;20.93;;;0.60;99.90;;;;;;5069833;28;20249;-55
2023/01/21 09:28:36;;;;;;;128.97;20.83;;;0.20;99.90;;;;;;5070472;28;20690;-55
2023/01/21 09:31:07;;;;;;;116.07;19.03;;;0.40;99.90;;;;;;5070680;28;20186;-55
2023/01/21 09:33:36;;;;;;;188.27;19.63;;;0.10;99.90;;;;;;5052027;28;20488;-56
2023/01/21 09:36:04;;;;;;;132.70;20.43;;;-0.10;99.90;;;;;;5069320;28;20180;-56
2023/01/21 09:38:30;;;;;;;193.03;21.13;;;0.00;99.90;;;;;;5070461;28;20720;-56
2023/01/21 09:41:13;;;;;;;135.20;17.90;;;0.10;99.90;;;;;;5070565;28;20168;-56
2023/01/21 09:43:52;;;;;;;151.47;18.53;;;0.00;99.90;;;;;;5070545;28;20165;-56
2023/01/21 09:46:31;;;;;;;75.17;18.37;;;0.40;99.90;;;;;;5070433;28;20165;-56
2023/01/21 09:48:58;;;;;;;51.87;17.13;;;0.10;99.90;;;;;;5069787;28;20602;-54
2023/01/21 09:51:46;;;;;;;62.30;15.70;;;0.70;99.90;;;;;;5069826;28;20536;-56
2023/01/21 09:54:39;;;;;;;64.67;15.67;;;0.80;99.90;;;;;;5070474;28;20179;-54
2023/01/21 09:57:23;;;;;;;90.80;15.57;;;0.40;99.90;;;;;;5048106;28;20189;-54
2023/01/21 09:59:57;;;;;;;51.10;16.53;;;0.30;99.90;;;;;;5069233;28;20183;-54
2023/01/21 10:02:46;;;;;;;57.00;15.43;;;0.60;99.90;;;;;;5069416;28;20659;-53
2023/01/21 10:05:31;;;;;;;64.17;15.93;;;0.60;99.90;;;;;;5069519;28;20254;-53
2023/01/21 10:08:00;;;;;;;106.93;17.97;;;0.40;99.90;;;;;;5070211;28;20187;-55
2023/01/21 10:10:35;;;;;;;49.37;17.30;;;1.00;99.90;;;;;;5070106;28;20215;-56
2023/01/21 10:13:04;;;;;;;65.70;15.97;;;0.20;99.90;;;;;;5066082;28;20329;-55
2023/01/21 10:15:48;;;;;;;40.97;16.00;;;1.10;99.90;;;;;;5066396;28;20203;-55
2023/01/21 10:18:30;;;;;;;62.00;15.03;;;1.00;99.90;;;;;;5069645;28;20172;-55
2023/01/21 10:21:16;;;;;;;53.37;14.90;;;0.70;99.90;;;;;;5069333;28;20207;-55
2023/01/21 10:23:51;;;;;;;63.67;16.93;;;0.90;99.90;;;;;;5068814;28;20175;-55
2023/01/21 10:26:17;;;;;;;48.87;15.50;;;1.00;99.90;;;;;;5069575;28;20286;-55
2023/01/21 10:28:51;;;;;;;42.43;16.83;;;1.00;99.90;;;;;;5069228;28;20726;-55
2023/01/21 10:31:20;;;;;;;45.73;13.43;;;1.20;99.90;;;;;;5069913;28;20183;-55
2023/01/21 10:33:46;;;;;;;40.53;14.70;;;2.00;99.90;;;;;;5070113;28;20184;-55
2023/01/21 10:36:47;;;;;;;41.57;15.40;;;1.00;99.90;;;;;;5068201;28;20234;-55
2023/01/21 10:39:23;;;;;;;36.80;14.87;;;1.10;99.90;;;;;;4986234;28;20198;-54
2023/01/21 10:41:58;;;;;;;40.43;14.07;;;1.20;99.90;;;;;;5059185;28;20545;-55
2023/01/21 10:44:48;;;;;;;41.07;14.97;;;1.00;99.90;;;;;;5051661;28;20203;-55
2023/01/21 10:47:49;;;;;;;33.73;14.90;;;1.20;99.90;;;;;;5056052;28;20176;-56
2023/01/21 10:50:24;;;;;;;53.37;15.97;;;1.30;99.90;;;;;;5070143;28;20212;-55
2023/01/21 10:53:00;;;;;;;41.73;15.30;;;1.30;99.90;;;;;;5069829;28;20202;-56
2023/01/21 10:55:48;;;;;;;47.93;15.80;;;1.00;99.90;;;;;;5069649;28;20630;-55
2023/01/21 10:58:29;;;;;;;38.73;15.70;;;1.60;99.90;;;;;;5020282;28;20173;-55
2023/01/21 11:00:59;;;;;;;37.67;15.93;;;1.50;99.90;;;;;;5069642;28;20247;-55
2023/01/21 11:03:37;;;;;;;42.77;16.17;;;1.60;99.90;;;;;;5069869;28;20260;-56
2023/01/21 11:06:07;;;;;;;49.70;17.87;;;1.70;99.90;;;;;;5067600;28;20234;-55
2023/01/21 11:08:32;;;;;;;43.47;17.30;;;2.00;99.90;;;;;;5061898;28;20334;-55
2023/01/21 11:10:59;;;;;;;66.77;17.57;;;2.20;99.90;;;;;;5062872;28;20688;-55
2023/01/21 11:13:25;;;;;;;51.70;17.60;;;2.00;99.90;;;;;;5069589;28;20669;-55
2023/01/21 11:15:56;;;;;;;46.43;17.87;;;2.00;99.90;;;;;;5069471;28;20176;-57
2023/01/21 11:18:40;;;;;;;47.07;18.40;;;2.00;99.90;;;;;;5072576;28;20274;-56
2023/01/21 11:21:21;;;;;;;52.43;17.83;;;1.90;99.90;;;;;;5072993;28;20191;-55
2023/01/21 11:24:12;;;;;;;42.97;17.97;;;1.90;99.90;;;;;;5072943;28;20599;-55
2023/01/21 11:26:49;;;;;;;44.77;17.53;;;2.00;99.90;;;;;;5066025;28;20173;-55
2023/01/21 11:29:17;;;;;;;50.93;19.23;;;2.00;99.90;;;;;;5072130;28;20287;-55
2023/01/21 11:31:49;;;;;;;42.60;16.43;;;2.10;99.90;;;;;;5072987;28;20245;-55
2023/01/21 11:34:17;;;;;;;41.83;16.43;;;2.00;99.90;;;;;;5072867;28;20187;-55
2023/01/21 11:36:58;;;;;;;47.67;16.50;;;2.00;99.90;;;;;;5072753;28;20181;-55
2023/01/21 11:39:27;;;;;;;46.87;18.30;;;2.90;99.90;;;;;;5071955;28;20176;-54
2023/01/21 11:41:54;;;;;;;44.77;19.70;;;2.10;99.90;;;;;;5071435;28;20273;-54
2023/01/21 11:44:21;;;;;;;42.07;16.57;;;2.30;99.90;;;;;;5072775;28;20168;-55
2023/01/21 11:46:47;;;;;;;39.10;16.90;;;2.20;99.90;;;;;;5072107;28;20546;-55
2023/01/21 11:49:24;;;;;;;43.80;16.43;;;2.00;99.90;;;;;;5072116;28;20679;-55
2023/01/21 11:52:04;;;;;;;37.57;16.13;;;4.40;99.90;;;;;;5072080;28;20180;-55
2023/01/21 11:54:38;;;;;;;45.90;17.53;;;1.90;99.90;;;;;;5071750;28;20175;-55
2023/01/21 11:57:04;;;;;;;42.23;16.53;;;1.60;99.90;;;;;;5072183;28;20256;-55
2023/01/21 11:59:40;;;;;;;38.97;16.57;;;1.70;99.90;;;;;;5070980;28;20264;-55
2023/01/21 12:02:32;;;;;;;42.10;16.10;;;1.80;99.90;;;;;;5071586;28;20180;-55
2023/01/21 12:05:00;;;;;;;32.13;14.97;;;1.90;99.90;;;;;;5044778;28;20196;-55
2023/01/21 12:07:36;;;;;;;39.07;16.90;;;1.90;99.90;;;;;;5081640;28;20180;-56
2023/01/21 12:10:11;;;;;;;39.17;16.20;;;2.10;99.90;;;;;;5072008;28;20323;-55
2023/01/21 12:12:48;;;;;;;38.30;16.00;;;2.20;99.90;;;;;;5072145;28;20170;-56
2023/01/21 12:15:37;;;;;;;45.27;17.83;;;2.20;99.90;;;;;;5071824;28;20250;-56
2023/01/21 12:18:38;;;;;;;55.07;18.87;;;2.40;99.90;;;;;;5058381;28;20724;-55
2023/01/21 12:21:26;;;;;;;55.93;24.53;;;2.50;99.90;;;;;;5031525;28;20204;-55
2023/01/21 12:24:27;;;;;;;40.40;17.87;;;2.70;99.90;;;;;;5069707;28;20191;-55
2023/01/21 12:27:09;;;;;;;39.70;17.10;;;2.90;99.90;;;;;;5068913;28;20195;-56
2023/01/21 12:29:49;;;;;;;43.90;18.10;;;2.80;99.90;;;;;;5071066;28;20227;-55
2023/01/21 12:32:24;;;;;;;53.27;18.53;;;2.50;99.90;;;;;;5071660;28;20168;-55
2023/01/21 12:35:16;;;;;;;40.17;16.40;;;2.50;99.90;;;;;;5066594;28;20176;-55
2023/01/21 12:37:50;;;;;;;42.70;17.70;;;2.50;99.90;;;;;;5070394;28;20218;-55
2023/01/21 12:40:23;;;;;;;41.30;17.90;;;2.50;99.90;;;;;;5070251;28;20259;-56
2023/01/21 12:42:55;;;;;;;38.77;18.10;;;2.60;99.90;;;;;;5071074;28;20200;-56
2023/01/21 12:45:27;;;;;;;38.73;17.80;;;2.80;99.90;;;;;;5071204;28;20176;-55
2023/01/21 12:48:00;;;;;;;39.40;17.37;;;2.70;99.90;;;;;;5071203;28;20184;-55
2023/01/21 12:50:40;;;;;;;36.83;16.87;;;2.80;99.90;;;;;;5070529;28;20682;-56
2023/01/21 12:53:08;;;;;;;43.87;19.00;;;2.70;99.90;;;;;;5071080;28;20217;-55
2023/01/21 12:55:58;;;;;;;41.10;17.80;;;2.90;99.90;;;;;;5071155;28;20192;-56